sensor_id;sensor_type;location;lat;lon;timestamp;P1;durP1;ratioP1;P2;durP2;ratioP2
39750;SDS011;37579;51.074;17.004;2024-03-22T00:00:24;6.18;;;4.07;;
39750;SDS011;37579;51.074;17.004;2024-03-22T00:02:50;7.05;;;3.85;;
39750;SDS011;37579;51.074;17.004;2024-03-22T00:05:16;7.18;;;4.15;;
39750;SDS011;37579;51.074;17.004;2024-03-22T00:07:42;8.90;;;4.25;;
39750;SDS011;37579;51.074;17.004;2024-03-22T00:10:09;7.75;;;4.28;;
39750;SDS011;37579;51.074;17.004;2024-03-22T00:12:35;8.98;;;4.18;;
39750;SDS011;37579;51.074;17.004;2024-03-22T00:15:01;9.23;;;4.07;;
39750;SDS011;37579;51.074;17.004;2024-03-22T00:17:27;7.93;;;3.78;;
39750;SDS011;37579;51.074;17.004;2024-03-22T00:19:53;8.20;;;3.67;;
39750;SDS011;37579;51.074;17.004;2024-03-22T00:22:19;7.43;;;4.03;;
39750;SDS011;37579;51.074;17.004;2024-03-22T00:24:45;8.45;;;4.10;;
39750;SDS011;37579;51.074;17.004;2024-03-22T00:27:11;7.45;;;3.60;;
39750;SDS011;37579;51.074;17.004;2024-03-22T00:29:38;9.32;;;4.13;;
39750;SDS011;37579;51.074;17.004;2024-03-22T00:32:04;5.80;;;3.65;;
39750;SDS011;37579;51.074;17.004;2024-03-22T00:34:32;7.03;;;3.83;;
39750;SDS011;37579;51.074;17.004;2024-03-22T00:36:58;6.85;;;3.78;;
39750;SDS011;37579;51.074;17.004;2024-03-22T00:39:24;6.72;;;3.55;;
39750;SDS011;37579;51.074;17.004;2024-03-22T00:41:50;7.15;;;3.50;;
39750;SDS011;37579;51.074;17.004;2024-03-22T00:44:16;5.88;;;3.63;;
39750;SDS011;37579;51.074;17.004;2024-03-22T00:46:43;5.95;;;3.40;;
39750;SDS011;37579;51.074;17.004;2024-03-22T00:49:09;6.38;;;4.15;;
39750;SDS011;37579;51.074;17.004;2024-03-22T00:51:35;6.18;;;3.40;;
39750;SDS011;37579;51.074;17.004;2024-03-22T00:54:01;6.10;;;3.60;;
39750;SDS011;37579;51.074;17.004;2024-03-22T00:56:28;5.82;;;3.40;;
39750;SDS011;37579;51.074;17.004;2024-03-22T00:58:54;6.07;;;3.08;;
39750;SDS011;37579;51.074;17.004;2024-03-22T01:01:20;6.53;;;3.65;;
39750;SDS011;37579;51.074;17.004;2024-03-22T01:03:46;5.43;;;3.47;;
39750;SDS011;37579;51.074;17.004;2024-03-22T01:06:12;6.93;;;3.50;;
39750;SDS011;37579;51.074;17.004;2024-03-22T01:08:38;5.82;;;3.10;;
39750;SDS011;37579;51.074;17.004;2024-03-22T01:11:04;4.88;;;2.97;;
39750;SDS011;37579;51.074;17.004;2024-03-22T01:13:30;5.50;;;3.10;;
39750;SDS011;37579;51.074;17.004;2024-03-22T01:15:56;6.50;;;2.92;;
39750;SDS011;37579;51.074;17.004;2024-03-22T01:18:23;4.10;;;2.75;;
39750;SDS011;37579;51.074;17.004;2024-03-22T01:20:49;3.97;;;3.03;;
39750;SDS011;37579;51.074;17.004;2024-03-22T01:23:15;5.82;;;3.20;;
39750;SDS011;37579;51.074;17.004;2024-03-22T01:25:41;4.22;;;2.85;;
39750;SDS011;37579;51.074;17.004;2024-03-22T01:28:07;6.28;;;3.25;;
39750;SDS011;37579;51.074;17.004;2024-03-22T01:30:33;5.20;;;2.75;;
39750;SDS011;37579;51.074;17.004;2024-03-22T01:33:01;5.20;;;2.97;;
39750;SDS011;37579;51.074;17.004;2024-03-22T01:35:28;4.75;;;2.70;;
39750;SDS011;37579;51.074;17.004;2024-03-22T01:37:54;4.47;;;2.70;;
39750;SDS011;37579;51.074;17.004;2024-03-22T01:40:20;3.92;;;2.58;;
39750;SDS011;37579;51.074;17.004;2024-03-22T01:42:46;4.30;;;2.53;;
39750;SDS011;37579;51.074;17.004;2024-03-22T01:45:12;5.45;;;2.80;;
39750;SDS011;37579;51.074;17.004;2024-03-22T01:47:40;4.80;;;2.85;;
39750;SDS011;37579;51.074;17.004;2024-03-22T01:50:07;3.90;;;2.63;;
39750;SDS011;37579;51.074;17.004;2024-03-22T01:52:33;4.45;;;2.67;;
39750;SDS011;37579;51.074;17.004;2024-03-22T01:55:00;3.90;;;2.97;;
39750;SDS011;37579;51.074;17.004;2024-03-22T01:57:27;4.10;;;2.72;;
39750;SDS011;37579;51.074;17.004;2024-03-22T01:59:53;6.20;;;2.75;;
39750;SDS011;37579;51.074;17.004;2024-03-22T02:02:21;4.65;;;2.78;;
39750;SDS011;37579;51.074;17.004;2024-03-22T02:04:50;5.15;;;2.60;;
39750;SDS011;37579;51.074;17.004;2024-03-22T02:07:16;5.35;;;2.40;;
39750;SDS011;37579;51.074;17.004;2024-03-22T02:09:42;3.85;;;2.75;;
39750;SDS011;37579;51.074;17.004;2024-03-22T02:12:09;4.15;;;2.30;;
39750;SDS011;37579;51.074;17.004;2024-03-22T02:14:35;3.42;;;2.47;;
39750;SDS011;37579;51.074;17.004;2024-03-22T02:17:01;4.28;;;2.70;;
39750;SDS011;37579;51.074;17.004;2024-03-22T02:19:27;4.63;;;2.55;;
39750;SDS011;37579;51.074;17.004;2024-03-22T02:21:53;5.47;;;2.40;;
39750;SDS011;37579;51.074;17.004;2024-03-22T02:24:19;4.53;;;3.08;;
39750;SDS011;37579;51.074;17.004;2024-03-22T02:26:45;4.07;;;2.40;;
39750;SDS011;37579;51.074;17.004;2024-03-22T02:29:11;3.97;;;2.40;;
39750;SDS011;37579;51.074;17.004;2024-03-22T02:31:38;3.78;;;2.45;;
39750;SDS011;37579;51.074;17.004;2024-03-22T02:34:04;4.35;;;2.33;;
39750;SDS011;37579;51.074;17.004;2024-03-22T02:36:30;4.22;;;2.47;;
39750;SDS011;37579;51.074;17.004;2024-03-22T02:38:56;3.45;;;2.28;;
39750;SDS011;37579;51.074;17.004;2024-03-22T02:41:22;5.07;;;2.65;;
39750;SDS011;37579;51.074;17.004;2024-03-22T02:43:48;3.42;;;2.25;;
39750;SDS011;37579;51.074;17.004;2024-03-22T02:46:14;3.35;;;2.20;;
39750;SDS011;37579;51.074;17.004;2024-03-22T02:48:40;2.75;;;2.15;;
39750;SDS011;37579;51.074;17.004;2024-03-22T02:51:06;4.38;;;2.50;;
39750;SDS011;37579;51.074;17.004;2024-03-22T02:53:33;4.00;;;2.47;;
39750;SDS011;37579;51.074;17.004;2024-03-22T02:55:59;3.47;;;2.10;;
39750;SDS011;37579;51.074;17.004;2024-03-22T02:58:26;4.68;;;2.13;;
39750;SDS011;37579;51.074;17.004;2024-03-22T03:00:52;4.18;;;2.15;;
39750;SDS011;37579;51.074;17.004;2024-03-22T03:03:18;3.85;;;2.25;;
39750;SDS011;37579;51.074;17.004;2024-03-22T03:05:44;3.22;;;2.10;;
39750;SDS011;37579;51.074;17.004;2024-03-22T03:08:10;3.63;;;2.10;;
39750;SDS011;37579;51.074;17.004;2024-03-22T03:10:36;3.45;;;2.30;;
39750;SDS011;37579;51.074;17.004;2024-03-22T03:13:02;4.00;;;2.08;;
39750;SDS011;37579;51.074;17.004;2024-03-22T03:15:29;3.38;;;2.10;;
39750;SDS011;37579;51.074;17.004;2024-03-22T03:17:55;3.10;;;2.08;;
39750;SDS011;37579;51.074;17.004;2024-03-22T03:20:21;4.68;;;2.40;;
39750;SDS011;37579;51.074;17.004;2024-03-22T03:22:47;3.17;;;2.03;;
39750;SDS011;37579;51.074;17.004;2024-03-22T03:25:13;2.97;;;2.28;;
39750;SDS011;37579;51.074;17.004;2024-03-22T03:27:39;2.80;;;1.95;;
39750;SDS011;37579;51.074;17.004;2024-03-22T03:30:06;3.03;;;1.95;;
39750;SDS011;37579;51.074;17.004;2024-03-22T03:32:32;3.08;;;2.25;;
39750;SDS011;37579;51.074;17.004;2024-03-22T03:34:58;2.60;;;1.90;;
39750;SDS011;37579;51.074;17.004;2024-03-22T03:37:24;3.10;;;2.10;;
39750;SDS011;37579;51.074;17.004;2024-03-22T03:39:50;3.17;;;1.88;;
39750;SDS011;37579;51.074;17.004;2024-03-22T03:42:16;3.65;;;2.30;;
39750;SDS011;37579;51.074;17.004;2024-03-22T03:44:42;2.75;;;1.88;;
39750;SDS011;37579;51.074;17.004;2024-03-22T03:47:09;2.67;;;1.75;;
39750;SDS011;37579;51.074;17.004;2024-03-22T03:49:35;3.65;;;2.10;;
39750;SDS011;37579;51.074;17.004;2024-03-22T03:52:01;2.83;;;2.10;;
39750;SDS011;37579;51.074;17.004;2024-03-22T03:54:27;3.00;;;1.90;;
39750;SDS011;37579;51.074;17.004;2024-03-22T03:56:53;2.67;;;1.75;;
39750;SDS011;37579;51.074;17.004;2024-03-22T03:59:20;3.17;;;1.92;;
39750;SDS011;37579;51.074;17.004;2024-03-22T04:01:46;2.78;;;1.70;;
39750;SDS011;37579;51.074;17.004;2024-03-22T04:04:12;2.97;;;2.03;;
39750;SDS011;37579;51.074;17.004;2024-03-22T04:06:39;2.55;;;1.73;;
39750;SDS011;37579;51.074;17.004;2024-03-22T04:09:05;3.55;;;1.70;;
39750;SDS011;37579;51.074;17.004;2024-03-22T04:11:31;3.22;;;1.77;;
39750;SDS011;37579;51.074;17.004;2024-03-22T04:13:57;2.33;;;1.73;;
39750;SDS011;37579;51.074;17.004;2024-03-22T04:16:23;2.38;;;1.48;;
39750;SDS011;37579;51.074;17.004;2024-03-22T04:18:49;2.75;;;1.98;;
39750;SDS011;37579;51.074;17.004;2024-03-22T04:21:16;2.30;;;1.73;;
39750;SDS011;37579;51.074;17.004;2024-03-22T04:23:42;2.63;;;1.92;;
39750;SDS011;37579;51.074;17.004;2024-03-22T04:26:08;2.90;;;1.50;;
39750;SDS011;37579;51.074;17.004;2024-03-22T04:28:34;3.47;;;1.63;;
39750;SDS011;37579;51.074;17.004;2024-03-22T04:31:01;2.60;;;1.50;;
39750;SDS011;37579;51.074;17.004;2024-03-22T04:33:28;2.28;;;1.63;;
39750;SDS011;37579;51.074;17.004;2024-03-22T04:35:54;2.67;;;1.50;;
39750;SDS011;37579;51.074;17.004;2024-03-22T04:38:21;2.33;;;1.75;;
39750;SDS011;37579;51.074;17.004;2024-03-22T04:40:48;2.50;;;1.60;;
39750;SDS011;37579;51.074;17.004;2024-03-22T04:43:14;2.05;;;1.40;;
39750;SDS011;37579;51.074;17.004;2024-03-22T04:45:42;3.30;;;1.50;;
39750;SDS011;37579;51.074;17.004;2024-03-22T04:48:08;2.20;;;1.70;;
39750;SDS011;37579;51.074;17.004;2024-03-22T04:50:34;2.50;;;1.83;;
39750;SDS011;37579;51.074;17.004;2024-03-22T04:53:01;1.83;;;1.38;;
39750;SDS011;37579;51.074;17.004;2024-03-22T04:55:27;2.53;;;1.63;;
39750;SDS011;37579;51.074;17.004;2024-03-22T04:57:53;1.95;;;1.42;;
39750;SDS011;37579;51.074;17.004;2024-03-22T05:00:19;2.53;;;1.60;;
39750;SDS011;37579;51.074;17.004;2024-03-22T05:02:45;2.80;;;1.85;;
39750;SDS011;37579;51.074;17.004;2024-03-22T05:05:12;2.42;;;1.70;;
39750;SDS011;37579;51.074;17.004;2024-03-22T05:07:39;2.97;;;1.90;;
39750;SDS011;37579;51.074;17.004;2024-03-22T05:10:05;2.15;;;1.85;;
39750;SDS011;37579;51.074;17.004;2024-03-22T05:12:31;1.80;;;1.45;;
39750;SDS011;37579;51.074;17.004;2024-03-22T05:14:57;1.95;;;1.33;;
39750;SDS011;37579;51.074;17.004;2024-03-22T05:17:23;1.33;;;1.17;;
39750;SDS011;37579;51.074;17.004;2024-03-22T05:19:49;2.05;;;1.50;;
39750;SDS011;37579;51.074;17.004;2024-03-22T05:22:15;2.00;;;1.48;;
39750;SDS011;37579;51.074;17.004;2024-03-22T05:24:42;1.98;;;1.55;;
39750;SDS011;37579;51.074;17.004;2024-03-22T05:27:08;1.92;;;1.50;;
39750;SDS011;37579;51.074;17.004;2024-03-22T05:29:34;2.58;;;1.42;;
39750;SDS011;37579;51.074;17.004;2024-03-22T05:32:00;2.30;;;1.35;;
39750;SDS011;37579;51.074;17.004;2024-03-22T05:34:29;2.42;;;1.67;;
39750;SDS011;37579;51.074;17.004;2024-03-22T05:36:55;2.63;;;1.40;;
39750;SDS011;37579;51.074;17.004;2024-03-22T05:39:21;1.98;;;1.50;;
39750;SDS011;37579;51.074;17.004;2024-03-22T05:41:47;1.58;;;1.23;;
39750;SDS011;37579;51.074;17.004;2024-03-22T05:44:13;6.20;;;1.42;;
39750;SDS011;37579;51.074;17.004;2024-03-22T05:46:39;2.10;;;1.15;;
39750;SDS011;37579;51.074;17.004;2024-03-22T05:49:05;3.25;;;1.75;;
39750;SDS011;37579;51.074;17.004;2024-03-22T05:51:32;2.38;;;1.42;;
39750;SDS011;37579;51.074;17.004;2024-03-22T05:53:59;2.70;;;1.50;;
39750;SDS011;37579;51.074;17.004;2024-03-22T05:56:25;1.70;;;1.27;;
39750;SDS011;37579;51.074;17.004;2024-03-22T05:58:51;5.22;;;1.27;;
39750;SDS011;37579;51.074;17.004;2024-03-22T06:01:17;2.03;;;1.20;;
39750;SDS011;37579;51.074;17.004;2024-03-22T06:03:43;2.80;;;2.03;;
39750;SDS011;37579;51.074;17.004;2024-03-22T06:06:09;2.85;;;1.58;;
39750;SDS011;37579;51.074;17.004;2024-03-22T06:08:35;2.55;;;1.67;;
39750;SDS011;37579;51.074;17.004;2024-03-22T06:11:04;1.88;;;1.35;;
39750;SDS011;37579;51.074;17.004;2024-03-22T06:13:30;2.38;;;1.40;;
39750;SDS011;37579;51.074;17.004;2024-03-22T06:15:57;1.73;;;1.42;;
39750;SDS011;37579;51.074;17.004;2024-03-22T06:18:23;2.45;;;1.40;;
39750;SDS011;37579;51.074;17.004;2024-03-22T06:20:49;2.40;;;1.40;;
39750;SDS011;37579;51.074;17.004;2024-03-22T06:23:15;1.65;;;1.17;;
39750;SDS011;37579;51.074;17.004;2024-03-22T06:25:41;2.40;;;1.23;;
39750;SDS011;37579;51.074;17.004;2024-03-22T06:28:16;2.28;;;1.20;;
39750;SDS011;37579;51.074;17.004;2024-03-22T06:30:42;2.10;;;1.20;;
39750;SDS011;37579;51.074;17.004;2024-03-22T06:33:09;2.78;;;1.10;;
39750;SDS011;37579;51.074;17.004;2024-03-22T06:35:35;3.60;;;1.30;;
39750;SDS011;37579;51.074;17.004;2024-03-22T06:38:01;1.92;;;1.10;;
39750;SDS011;37579;51.074;17.004;2024-03-22T06:40:28;3.63;;;1.00;;
39750;SDS011;37579;51.074;17.004;2024-03-22T06:42:54;3.13;;;1.20;;
39750;SDS011;37579;51.074;17.004;2024-03-22T06:45:20;3.10;;;1.30;;
39750;SDS011;37579;51.074;17.004;2024-03-22T06:47:45;2.05;;;1.45;;
39750;SDS011;37579;51.074;17.004;2024-03-22T06:50:11;2.42;;;1.50;;
39750;SDS011;37579;51.074;17.004;2024-03-22T06:52:37;2.50;;;1.20;;
39750;SDS011;37579;51.074;17.004;2024-03-22T06:55:03;3.63;;;1.40;;
39750;SDS011;37579;51.074;17.004;2024-03-22T06:57:29;3.13;;;1.23;;
39750;SDS011;37579;51.074;17.004;2024-03-22T06:59:55;1.75;;;1.05;;
39750;SDS011;37579;51.074;17.004;2024-03-22T07:02:21;1.85;;;1.48;;
39750;SDS011;37579;51.074;17.004;2024-03-22T07:04:47;2.10;;;1.10;;
39750;SDS011;37579;51.074;17.004;2024-03-22T07:07:12;2.35;;;1.40;;
39750;SDS011;37579;51.074;17.004;2024-03-22T07:09:38;2.25;;;1.30;;
39750;SDS011;37579;51.074;17.004;2024-03-22T07:12:04;1.70;;;1.25;;
39750;SDS011;37579;51.074;17.004;2024-03-22T07:14:30;2.45;;;0.93;;
39750;SDS011;37579;51.074;17.004;2024-03-22T07:16:56;2.05;;;1.20;;
39750;SDS011;37579;51.074;17.004;2024-03-22T07:19:21;1.58;;;1.10;;
39750;SDS011;37579;51.074;17.004;2024-03-22T07:21:47;3.92;;;1.25;;
39750;SDS011;37579;51.074;17.004;2024-03-22T07:24:13;1.95;;;1.08;;
39750;SDS011;37579;51.074;17.004;2024-03-22T07:26:39;4.85;;;1.58;;
39750;SDS011;37579;51.074;17.004;2024-03-22T07:29:05;1.98;;;0.90;;
39750;SDS011;37579;51.074;17.004;2024-03-22T07:31:31;2.05;;;1.10;;
39750;SDS011;37579;51.074;17.004;2024-03-22T07:33:57;3.42;;;0.93;;
39750;SDS011;37579;51.074;17.004;2024-03-22T07:36:23;2.10;;;1.30;;
39750;SDS011;37579;51.074;17.004;2024-03-22T07:38:49;1.67;;;1.20;;
39750;SDS011;37579;51.074;17.004;2024-03-22T07:41:14;3.63;;;1.20;;
39750;SDS011;37579;51.074;17.004;2024-03-22T07:43:40;1.75;;;1.10;;
39750;SDS011;37579;51.074;17.004;2024-03-22T07:46:06;2.63;;;1.13;;
39750;SDS011;37579;51.074;17.004;2024-03-22T07:48:32;7.25;;;1.40;;
39750;SDS011;37579;51.074;17.004;2024-03-22T07:50:58;2.55;;;1.98;;
39750;SDS011;37579;51.074;17.004;2024-03-22T07:53:24;3.60;;;1.50;;
39750;SDS011;37579;51.074;17.004;2024-03-22T07:55:50;2.83;;;1.35;;
39750;SDS011;37579;51.074;17.004;2024-03-22T07:58:16;2.38;;;1.60;;
39750;SDS011;37579;51.074;17.004;2024-03-22T08:00:42;3.10;;;1.73;;
39750;SDS011;37579;51.074;17.004;2024-03-22T08:03:08;4.85;;;1.73;;
39750;SDS011;37579;51.074;17.004;2024-03-22T08:05:40;2.83;;;2.07;;
39750;SDS011;37579;51.074;17.004;2024-03-22T08:08:06;4.55;;;1.88;;
39750;SDS011;37579;51.074;17.004;2024-03-22T08:10:32;4.13;;;2.00;;
39750;SDS011;37579;51.074;17.004;2024-03-22T08:12:57;4.82;;;2.10;;
39750;SDS011;37579;51.074;17.004;2024-03-22T08:15:23;5.20;;;2.33;;
39750;SDS011;37579;51.074;17.004;2024-03-22T08:17:49;4.15;;;2.40;;
39750;SDS011;37579;51.074;17.004;2024-03-22T08:20:15;8.70;;;6.78;;
39750;SDS011;37579;51.074;17.004;2024-03-22T08:22:40;12.90;;;8.90;;
39750;SDS011;37579;51.074;17.004;2024-03-22T08:25:09;6.57;;;5.25;;
39750;SDS011;37579;51.074;17.004;2024-03-22T08:27:35;6.15;;;3.95;;
39750;SDS011;37579;51.074;17.004;2024-03-22T08:30:01;6.13;;;3.20;;
39750;SDS011;37579;51.074;17.004;2024-03-22T08:32:27;5.72;;;3.03;;
39750;SDS011;37579;51.074;17.004;2024-03-22T08:34:53;5.60;;;3.10;;
39750;SDS011;37579;51.074;17.004;2024-03-22T08:37:19;5.38;;;2.90;;
39750;SDS011;37579;51.074;17.004;2024-03-22T08:39:44;4.30;;;2.65;;
39750;SDS011;37579;51.074;17.004;2024-03-22T08:42:10;5.07;;;2.65;;
39750;SDS011;37579;51.074;17.004;2024-03-22T08:44:36;4.85;;;2.60;;
39750;SDS011;37579;51.074;17.004;2024-03-22T08:47:02;5.22;;;3.05;;
39750;SDS011;37579;51.074;17.004;2024-03-22T08:49:28;3.80;;;2.60;;
39750;SDS011;37579;51.074;17.004;2024-03-22T08:51:53;4.80;;;2.80;;
39750;SDS011;37579;51.074;17.004;2024-03-22T08:54:19;5.40;;;2.65;;
39750;SDS011;37579;51.074;17.004;2024-03-22T08:56:45;5.07;;;2.67;;
39750;SDS011;37579;51.074;17.004;2024-03-22T08:59:10;5.45;;;2.83;;
39750;SDS011;37579;51.074;17.004;2024-03-22T09:01:36;6.28;;;2.67;;
39750;SDS011;37579;51.074;17.004;2024-03-22T09:04:03;7.65;;;2.97;;
39750;SDS011;37579;51.074;17.004;2024-03-22T09:06:29;5.03;;;2.67;;
39750;SDS011;37579;51.074;17.004;2024-03-22T09:08:55;5.25;;;2.78;;
39750;SDS011;37579;51.074;17.004;2024-03-22T09:11:23;6.70;;;3.25;;
39750;SDS011;37579;51.074;17.004;2024-03-22T09:13:52;6.68;;;2.58;;
39750;SDS011;37579;51.074;17.004;2024-03-22T09:16:19;4.55;;;2.50;;
39750;SDS011;37579;51.074;17.004;2024-03-22T09:18:45;6.32;;;2.30;;
39750;SDS011;37579;51.074;17.004;2024-03-22T09:21:11;4.28;;;2.53;;
39750;SDS011;37579;51.074;17.004;2024-03-22T09:23:37;4.07;;;2.60;;
39750;SDS011;37579;51.074;17.004;2024-03-22T09:26:03;3.33;;;2.35;;
39750;SDS011;37579;51.074;17.004;2024-03-22T09:28:29;4.78;;;2.50;;
39750;SDS011;37579;51.074;17.004;2024-03-22T09:30:55;4.47;;;2.15;;
39750;SDS011;37579;51.074;17.004;2024-03-22T09:33:21;4.47;;;2.20;;
39750;SDS011;37579;51.074;17.004;2024-03-22T09:35:47;5.78;;;2.42;;
39750;SDS011;37579;51.074;17.004;2024-03-22T09:38:13;3.92;;;2.28;;
39750;SDS011;37579;51.074;17.004;2024-03-22T09:40:41;4.80;;;2.85;;
39750;SDS011;37579;51.074;17.004;2024-03-22T09:43:07;4.90;;;2.72;;
39750;SDS011;37579;51.074;17.004;2024-03-22T09:45:34;3.53;;;2.35;;
39750;SDS011;37579;51.074;17.004;2024-03-22T09:48:00;6.30;;;2.72;;
39750;SDS011;37579;51.074;17.004;2024-03-22T09:50:27;5.05;;;2.58;;
39750;SDS011;37579;51.074;17.004;2024-03-22T09:52:54;5.20;;;2.22;;
39750;SDS011;37579;51.074;17.004;2024-03-22T09:55:22;5.68;;;2.20;;
39750;SDS011;37579;51.074;17.004;2024-03-22T09:57:48;5.00;;;2.50;;
39750;SDS011;37579;51.074;17.004;2024-03-22T10:00:19;6.35;;;2.33;;
39750;SDS011;37579;51.074;17.004;2024-03-22T10:02:47;5.38;;;2.10;;
39750;SDS011;37579;51.074;17.004;2024-03-22T10:05:14;5.15;;;2.10;;
39750;SDS011;37579;51.074;17.004;2024-03-22T10:07:42;3.53;;;2.10;;
39750;SDS011;37579;51.074;17.004;2024-03-22T10:10:09;5.20;;;2.25;;
39750;SDS011;37579;51.074;17.004;2024-03-22T10:12:35;4.97;;;2.22;;
39750;SDS011;37579;51.074;17.004;2024-03-22T10:15:01;4.13;;;2.28;;
39750;SDS011;37579;51.074;17.004;2024-03-22T10:17:28;3.55;;;2.15;;
39750;SDS011;37579;51.074;17.004;2024-03-22T10:19:54;3.80;;;2.10;;
39750;SDS011;37579;51.074;17.004;2024-03-22T10:22:21;3.10;;;2.22;;
39750;SDS011;37579;51.074;17.004;2024-03-22T10:24:46;3.60;;;2.00;;
39750;SDS011;37579;51.074;17.004;2024-03-22T10:27:13;7.03;;;2.67;;
39750;SDS011;37579;51.074;17.004;2024-03-22T10:29:39;6.35;;;2.30;;
39750;SDS011;37579;51.074;17.004;2024-03-22T10:32:05;5.40;;;2.47;;
39750;SDS011;37579;51.074;17.004;2024-03-22T10:34:31;5.47;;;2.40;;
39750;SDS011;37579;51.074;17.004;2024-03-22T10:37:03;8.25;;;2.15;;
39750;SDS011;37579;51.074;17.004;2024-03-22T10:39:30;7.43;;;2.53;;
39750;SDS011;37579;51.074;17.004;2024-03-22T10:41:56;5.43;;;2.00;;
39750;SDS011;37579;51.074;17.004;2024-03-22T10:44:21;5.38;;;2.00;;
39750;SDS011;37579;51.074;17.004;2024-03-22T10:46:49;8.48;;;2.50;;
39750;SDS011;37579;51.074;17.004;2024-03-22T10:49:20;5.47;;;2.00;;
39750;SDS011;37579;51.074;17.004;2024-03-22T10:51:46;4.30;;;1.70;;
39750;SDS011;37579;51.074;17.004;2024-03-22T10:54:21;5.53;;;2.25;;
39750;SDS011;37579;51.074;17.004;2024-03-22T10:56:52;7.28;;;2.00;;
39750;SDS011;37579;51.074;17.004;2024-03-22T10:59:19;8.45;;;1.98;;
39750;SDS011;37579;51.074;17.004;2024-03-22T11:01:46;5.97;;;2.28;;
39750;SDS011;37579;51.074;17.004;2024-03-22T11:04:12;5.35;;;2.28;;
39750;SDS011;37579;51.074;17.004;2024-03-22T11:06:40;2.45;;;1.75;;
39750;SDS011;37579;51.074;17.004;2024-03-22T11:09:07;4.68;;;2.03;;
39750;SDS011;37579;51.074;17.004;2024-03-22T11:11:35;3.35;;;1.80;;
39750;SDS011;37579;51.074;17.004;2024-03-22T11:14:03;5.43;;;2.30;;
39750;SDS011;37579;51.074;17.004;2024-03-22T11:16:29;4.38;;;2.17;;
39750;SDS011;37579;51.074;17.004;2024-03-22T11:18:55;5.18;;;2.13;;
39750;SDS011;37579;51.074;17.004;2024-03-22T11:21:21;2.80;;;1.88;;
39750;SDS011;37579;51.074;17.004;2024-03-22T11:23:47;3.83;;;2.63;;
39750;SDS011;37579;51.074;17.004;2024-03-22T11:26:13;4.78;;;1.90;;
39750;SDS011;37579;51.074;17.004;2024-03-22T11:28:39;3.38;;;1.98;;
39750;SDS011;37579;51.074;17.004;2024-03-22T11:31:05;3.47;;;1.92;;
39750;SDS011;37579;51.074;17.004;2024-03-22T11:33:31;4.22;;;1.80;;
39750;SDS011;37579;51.074;17.004;2024-03-22T11:36:00;5.15;;;2.30;;
39750;SDS011;37579;51.074;17.004;2024-03-22T11:38:27;4.32;;;2.10;;
39750;SDS011;37579;51.074;17.004;2024-03-22T11:40:54;6.38;;;2.60;;
39750;SDS011;37579;51.074;17.004;2024-03-22T11:43:22;6.22;;;3.05;;
39750;SDS011;37579;51.074;17.004;2024-03-22T11:45:48;4.85;;;2.65;;
39750;SDS011;37579;51.074;17.004;2024-03-22T11:48:14;3.95;;;2.47;;
39750;SDS011;37579;51.074;17.004;2024-03-22T11:50:39;4.07;;;2.55;;
39750;SDS011;37579;51.074;17.004;2024-03-22T11:53:05;4.57;;;2.72;;
39750;SDS011;37579;51.074;17.004;2024-03-22T11:55:31;7.45;;;3.40;;
39750;SDS011;37579;51.074;17.004;2024-03-22T11:57:58;4.38;;;2.53;;
39750;SDS011;37579;51.074;17.004;2024-03-22T12:00:24;6.22;;;2.70;;
39750;SDS011;37579;51.074;17.004;2024-03-22T12:02:50;5.43;;;2.83;;
39750;SDS011;37579;51.074;17.004;2024-03-22T12:05:17;10.60;;;3.17;;
39750;SDS011;37579;51.074;17.004;2024-03-22T12:07:46;7.07;;;2.88;;
39750;SDS011;37579;51.074;17.004;2024-03-22T12:10:12;7.30;;;2.83;;
39750;SDS011;37579;51.074;17.004;2024-03-22T12:12:39;5.65;;;3.20;;
39750;SDS011;37579;51.074;17.004;2024-03-22T12:15:05;3.78;;;2.38;;
39750;SDS011;37579;51.074;17.004;2024-03-22T12:17:31;7.47;;;3.25;;
39750;SDS011;37579;51.074;17.004;2024-03-22T12:19:56;7.15;;;3.08;;
39750;SDS011;37579;51.074;17.004;2024-03-22T12:22:22;5.63;;;2.83;;
39750;SDS011;37579;51.074;17.004;2024-03-22T12:24:50;5.90;;;3.28;;
39750;SDS011;37579;51.074;17.004;2024-03-22T12:27:16;9.70;;;3.10;;
39750;SDS011;37579;51.074;17.004;2024-03-22T12:29:42;6.22;;;3.08;;
39750;SDS011;37579;51.074;17.004;2024-03-22T12:32:08;5.40;;;3.33;;
39750;SDS011;37579;51.074;17.004;2024-03-22T12:34:35;7.65;;;3.72;;
39750;SDS011;37579;51.074;17.004;2024-03-22T12:37:01;6.65;;;3.33;;
39750;SDS011;37579;51.074;17.004;2024-03-22T12:39:27;6.75;;;3.28;;
39750;SDS011;37579;51.074;17.004;2024-03-22T12:41:53;6.47;;;3.00;;
39750;SDS011;37579;51.074;17.004;2024-03-22T12:44:20;8.52;;;3.10;;
39750;SDS011;37579;51.074;17.004;2024-03-22T12:46:46;5.63;;;3.20;;
39750;SDS011;37579;51.074;17.004;2024-03-22T12:49:12;5.75;;;2.85;;
39750;SDS011;37579;51.074;17.004;2024-03-22T12:51:38;7.13;;;3.35;;
39750;SDS011;37579;51.074;17.004;2024-03-22T12:54:04;9.73;;;3.10;;
39750;SDS011;37579;51.074;17.004;2024-03-22T12:56:30;8.50;;;3.55;;
39750;SDS011;37579;51.074;17.004;2024-03-22T12:58:56;13.02;;;3.78;;
39750;SDS011;37579;51.074;17.004;2024-03-22T13:01:24;9.82;;;3.60;;
39750;SDS011;37579;51.074;17.004;2024-03-22T13:03:49;12.25;;;4.00;;
39750;SDS011;37579;51.074;17.004;2024-03-22T13:06:15;17.17;;;4.70;;
39750;SDS011;37579;51.074;17.004;2024-03-22T13:08:41;11.60;;;4.50;;
39750;SDS011;37579;51.074;17.004;2024-03-22T13:11:07;14.52;;;4.60;;
39750;SDS011;37579;51.074;17.004;2024-03-22T13:13:34;12.93;;;4.85;;
39750;SDS011;37579;51.074;17.004;2024-03-22T13:16:00;14.13;;;5.00;;
39750;SDS011;37579;51.074;17.004;2024-03-22T13:18:28;10.35;;;4.35;;
39750;SDS011;37579;51.074;17.004;2024-03-22T13:20:54;14.10;;;5.22;;
39750;SDS011;37579;51.074;17.004;2024-03-22T13:23:20;12.15;;;4.32;;
39750;SDS011;37579;51.074;17.004;2024-03-22T13:25:45;12.10;;;4.32;;
39750;SDS011;37579;51.074;17.004;2024-03-22T13:28:11;20.25;;;5.00;;
39750;SDS011;37579;51.074;17.004;2024-03-22T13:30:37;12.30;;;4.05;;
39750;SDS011;37579;51.074;17.004;2024-03-22T13:33:04;13.65;;;4.65;;
39750;SDS011;37579;51.074;17.004;2024-03-22T13:35:29;9.40;;;3.70;;
39750;SDS011;37579;51.074;17.004;2024-03-22T13:37:56;14.02;;;4.75;;
39750;SDS011;37579;51.074;17.004;2024-03-22T13:40:22;10.90;;;4.30;;
39750;SDS011;37579;51.074;17.004;2024-03-22T13:42:47;11.93;;;4.15;;
39750;SDS011;37579;51.074;17.004;2024-03-22T13:45:13;8.93;;;4.00;;
39750;SDS011;37579;51.074;17.004;2024-03-22T13:47:39;16.90;;;4.43;;
39750;SDS011;37579;51.074;17.004;2024-03-22T13:50:06;12.35;;;3.67;;
39750;SDS011;37579;51.074;17.004;2024-03-22T13:52:35;12.30;;;4.25;;
39750;SDS011;37579;51.074;17.004;2024-03-22T13:55:01;12.82;;;3.92;;
39750;SDS011;37579;51.074;17.004;2024-03-22T13:57:27;14.45;;;4.72;;
39750;SDS011;37579;51.074;17.004;2024-03-22T13:59:53;9.27;;;3.55;;
39750;SDS011;37579;51.074;17.004;2024-03-22T14:02:19;7.97;;;3.40;;
39750;SDS011;37579;51.074;17.004;2024-03-22T14:04:45;9.57;;;3.25;;
39750;SDS011;37579;51.074;17.004;2024-03-22T14:07:11;10.13;;;3.42;;
39750;SDS011;37579;51.074;17.004;2024-03-22T14:09:37;9.75;;;3.92;;
39750;SDS011;37579;51.074;17.004;2024-03-22T14:12:02;10.82;;;3.92;;
39750;SDS011;37579;51.074;17.004;2024-03-22T14:14:28;8.32;;;4.00;;
39750;SDS011;37579;51.074;17.004;2024-03-22T14:16:54;8.38;;;3.65;;
39750;SDS011;37579;51.074;17.004;2024-03-22T14:19:20;9.50;;;3.20;;
39750;SDS011;37579;51.074;17.004;2024-03-22T14:21:46;9.82;;;3.80;;
39750;SDS011;37579;51.074;17.004;2024-03-22T14:24:12;9.70;;;3.30;;
39750;SDS011;37579;51.074;17.004;2024-03-22T14:26:38;7.60;;;3.13;;